createdAt,value
2019-05-01T00:05:33.221Z,6.53
2019-05-01T00:08:06.689Z,6.58
2019-05-01T00:10:46.114Z,6.47
2019-05-01T00:13:20.225Z,6.03
2019-05-01T00:15:59.224Z,6.50
2019-05-01T00:18:31.133Z,6.42
2019-05-01T00:21:08.826Z,7.20
2019-05-01T00:23:42.105Z,6.60
2019-05-01T00:26:19.404Z,6.35
2019-05-01T00:28:54.705Z,7.47
2019-05-01T00:31:30.293Z,6.83
2019-05-01T00:34:00.053Z,6.90
2019-05-01T00:36:31.988Z,6.50
2019-05-01T00:39:02.564Z,6.72
2019-05-01T00:41:31.764Z,7.00
2019-05-01T00:44:01.926Z,6.85
2019-05-01T00:46:30.704Z,6.35
2019-05-01T00:49:00.804Z,6.78
2019-05-01T00:51:36.565Z,6.97
2019-05-01T00:54:09.165Z,7.15
2019-05-01T00:56:45.385Z,6.60
2019-05-01T00:59:25.465Z,7.03
2019-05-01T01:02:02.605Z,7.30
2019-05-01T01:04:32.845Z,7.05
2019-05-01T01:07:06.145Z,6.80
2019-05-01T01:09:37.526Z,6.50
2019-05-01T01:12:07.104Z,6.75
2019-05-01T01:14:40.706Z,7.00
2019-05-01T01:17:18.505Z,6.75
2019-05-01T01:19:47.287Z,6.80
2019-05-01T01:22:16.466Z,6.95
2019-05-01T01:24:45.513Z,7.00
2019-05-01T01:27:14.925Z,6.80
2019-05-01T01:29:46.405Z,6.92
2019-05-01T01:32:15.165Z,7.15
2019-05-01T01:34:45.705Z,6.30
2019-05-01T01:37:17.405Z,7.40
2019-05-01T01:39:46.545Z,6.62
2019-05-01T01:42:15.915Z,7.30
2019-05-01T01:45:01.325Z,6.70
2019-05-01T01:47:31.705Z,7.40
2019-05-01T01:50:02.054Z,6.97
2019-05-01T01:52:31.344Z,6.83
2019-05-01T01:55:00.590Z,7.47
2019-05-01T01:57:31.153Z,6.80
2019-05-01T02:00:01.649Z,7.08
2019-05-01T02:02:33.885Z,6.80
2019-05-01T02:05:04.366Z,6.83
2019-05-01T02:07:33.945Z,7.10
2019-05-01T02:10:04.547Z,6.80
2019-05-01T02:12:36.005Z,6.92
2019-05-01T02:15:06.925Z,6.80
2019-05-01T02:17:37.425Z,6.45
2019-05-01T02:20:07.385Z,7.10
2019-05-01T02:22:36.206Z,6.90
2019-05-01T02:25:07.085Z,7.22
2019-05-01T02:27:40.404Z,6.25
2019-05-01T02:30:13.865Z,7.30
2019-05-01T02:32:42.770Z,7.53
2019-05-01T02:35:11.966Z,7.40
2019-05-01T02:37:41.226Z,6.83
2019-05-01T02:40:42.426Z,6.70
2019-05-01T02:43:11.426Z,6.87
2019-05-01T02:45:40.785Z,7.00
2019-05-01T02:48:09.645Z,7.03
2019-05-01T02:50:41.182Z,6.67
2019-05-01T02:53:13.188Z,6.97
2019-05-01T02:55:43.635Z,7.50
2019-05-01T02:58:14.265Z,7.37
2019-05-01T03:00:43.075Z,7.25
2019-05-01T03:03:11.935Z,6.80
2019-05-01T03:05:54.064Z,6.67
2019-05-01T03:08:23.047Z,6.78
2019-05-01T03:10:53.775Z,6.42
2019-05-01T03:15:55.646Z,6.58
2019-05-01T03:18:31.696Z,7.25
2019-05-01T03:21:02.067Z,6.95
2019-05-01T03:23:33.875Z,6.67
2019-05-01T03:26:03.017Z,6.70
2019-05-01T03:28:31.970Z,7.08
2019-05-01T03:31:02.658Z,6.72
2019-05-01T03:33:31.416Z,6.70
2019-05-01T03:36:01.511Z,6.97
2019-05-01T03:38:30.726Z,6.67
2019-05-01T03:41:00.032Z,6.87
2019-05-01T03:43:30.256Z,7.35
2019-05-01T03:45:59.241Z,7.28
2019-05-01T03:48:30.196Z,6.62
2019-05-01T03:50:59.219Z,6.92
2019-05-01T03:53:30.825Z,7.05
2019-05-01T03:55:59.636Z,6.92
2019-05-01T03:58:29.736Z,6.70
2019-05-01T04:01:16.446Z,7.15
2019-05-01T04:03:52.926Z,7.12
2019-05-01T04:06:22.897Z,7.20
2019-05-01T04:08:53.177Z,7.10
2019-05-01T04:11:22.165Z,7.17
2019-05-01T04:13:51.237Z,6.65
2019-05-01T04:16:20.981Z,7.03
2019-05-01T04:18:50.456Z,7.53
2019-05-01T04:21:23.175Z,7.00
2019-05-01T04:23:57.182Z,7.15
2019-05-01T04:26:29.717Z,6.75
2019-05-01T04:29:04.427Z,6.70
2019-05-01T04:31:41.239Z,6.95
2019-05-01T04:34:35.115Z,7.05
2019-05-01T04:37:06.345Z,7.08
2019-05-01T04:39:35.546Z,7.00
2019-05-01T04:42:04.731Z,6.65
2019-05-01T04:44:33.835Z,6.92
2019-05-01T04:47:03.983Z,6.65
2019-05-01T04:49:37.365Z,7.03
2019-05-01T04:52:08.495Z,6.70
2019-05-01T04:54:37.485Z,6.25
2019-05-01T04:57:06.245Z,6.30
2019-05-01T04:59:36.823Z,6.90
2019-05-01T05:02:07.395Z,6.60
2019-05-01T05:04:36.635Z,6.58
2019-05-01T05:07:05.642Z,6.45
2019-05-01T05:09:47.184Z,6.70
2019-05-01T05:12:24.294Z,6.62
2019-05-01T05:14:56.395Z,6.30
2019-05-01T05:17:27.345Z,6.80
2019-05-01T05:19:57.915Z,6.70
2019-05-01T05:22:27.335Z,6.47
2019-05-01T05:24:57.912Z,6.42
2019-05-01T05:27:27.085Z,6.80
2019-05-01T05:29:57.905Z,5.85
2019-05-01T05:34:57.555Z,6.00
2019-05-01T05:37:32.475Z,6.20
2019-05-01T05:40:04.844Z,6.30
2019-05-01T05:42:49.224Z,6.78
2019-05-01T05:45:19.405Z,6.78
2019-05-01T05:47:48.298Z,6.90
2019-05-01T05:50:18.935Z,6.20
2019-05-01T05:52:49.648Z,6.45
2019-05-01T05:55:25.435Z,6.65
2019-05-01T05:57:58.805Z,6.40
2019-05-01T06:00:43.565Z,6.28
2019-05-01T06:03:31.358Z,6.15
2019-05-01T06:06:03.685Z,6.30
2019-05-01T06:08:32.775Z,5.78
2019-05-01T06:11:05.945Z,6.55
2019-05-01T06:13:56.556Z,6.55
2019-05-01T06:16:24.855Z,5.75
2019-05-01T06:19:16.346Z,6.45
2019-05-01T06:21:48.393Z,6.60
2019-05-01T06:24:40.601Z,6.08
2019-05-01T06:27:13.583Z,6.00
2019-05-01T06:29:42.175Z,6.35
2019-05-01T06:32:13.066Z,6.35
2019-05-01T06:34:45.061Z,6.08
2019-05-01T06:37:25.034Z,6.08
2019-05-01T06:39:56.325Z,6.03
2019-05-01T06:42:31.580Z,5.37
2019-05-01T06:45:04.855Z,6.35
2019-05-01T06:47:48.713Z,7.70
2019-05-01T06:50:20.634Z,8.20
2019-05-01T06:53:06.267Z,9.90
2019-05-01T06:55:40.945Z,10.65
2019-05-01T06:58:24.715Z,10.70
2019-05-01T07:00:59.145Z,11.88
2019-05-01T07:03:28.925Z,11.33
2019-05-01T07:06:14.394Z,11.70
2019-05-01T07:08:43.835Z,11.25
2019-05-01T07:11:16.622Z,12.68
2019-05-01T07:13:55.302Z,13.28
2019-05-01T07:16:32.951Z,12.98
2019-05-01T07:19:05.882Z,12.68
2019-05-01T07:21:36.235Z,13.25
2019-05-01T07:24:08.605Z,12.35
2019-05-01T07:26:43.966Z,12.07
2019-05-01T07:29:54.135Z,12.43
2019-05-01T07:32:01.712Z,12.50
2019-05-01T07:34:31.825Z,13.53
2019-05-01T07:37:27.798Z,12.82
2019-05-01T07:40:02.685Z,13.38
2019-05-01T07:42:38.252Z,12.30
2019-05-01T07:45:14.878Z,13.05
2019-05-01T07:47:53.195Z,13.03
2019-05-01T07:50:31.610Z,12.60
2019-05-01T07:53:01.979Z,13.10
2019-05-01T07:55:36.377Z,12.90
2019-05-01T07:58:53.415Z,14.28
2019-05-01T08:01:31.285Z,13.53
2019-05-01T08:04:00.055Z,15.13
2019-05-01T08:06:29.185Z,14.73
2019-05-01T08:08:58.165Z,14.38
2019-05-01T08:11:27.171Z,16.42
2019-05-01T08:14:07.034Z,15.25
2019-05-01T08:16:26.794Z,14.98
2019-05-01T08:18:59.149Z,15.23
2019-05-01T08:21:29.434Z,15.75
2019-05-01T08:23:58.515Z,15.65
2019-05-01T08:26:27.784Z,14.93
2019-05-01T08:29:06.833Z,16.27
2019-05-01T08:32:03.363Z,15.13
2019-05-01T08:34:31.623Z,15.40
2019-05-01T08:37:01.324Z,16.42
2019-05-01T08:39:30.119Z,15.48
2019-05-01T08:42:07.200Z,14.93
2019-05-01T08:44:47.654Z,14.98
2019-05-01T08:47:20.848Z,14.58
2019-05-01T08:50:07.357Z,13.78
2019-05-01T08:52:42.779Z,14.60
2019-05-01T08:55:14.475Z,14.63
2019-05-01T08:57:48.250Z,14.55
2019-05-01T09:00:20.330Z,12.20
2019-05-01T09:02:51.266Z,9.95
2019-05-01T09:05:28.848Z,8.70
2019-05-01T09:07:57.654Z,8.55
2019-05-01T09:10:25.735Z,7.85
2019-05-01T09:12:54.855Z,8.08
2019-05-01T09:15:25.321Z,8.33
2019-05-01T09:17:54.255Z,7.35
2019-05-01T09:20:23.357Z,8.25
2019-05-01T09:22:52.243Z,8.00
2019-05-01T09:25:22.724Z,7.35
2019-05-01T09:27:53.274Z,7.28
2019-05-01T09:30:41.014Z,7.30
2019-05-01T09:33:16.085Z,6.47
2019-05-01T09:35:47.105Z,6.78
2019-05-01T09:38:15.886Z,6.80
2019-05-01T09:40:45.204Z,6.70
2019-05-01T09:43:15.615Z,6.87
2019-05-01T09:45:44.715Z,6.67
2019-05-01T09:48:16.562Z,6.80
2019-05-01T09:50:48.567Z,6.70
2019-05-01T09:53:21.845Z,6.05
2019-05-01T09:55:58.204Z,6.22
2019-05-01T09:58:32.955Z,6.20
2019-05-01T10:01:03.145Z,6.75
2019-05-01T10:03:33.655Z,7.10
2019-05-01T10:06:05.725Z,6.30
2019-05-01T10:08:39.763Z,6.33
2019-05-01T10:11:06.872Z,5.92
2019-05-01T10:13:37.525Z,5.22
2019-05-01T10:16:18.594Z,5.78
2019-05-01T10:18:47.693Z,6.22
2019-05-01T10:21:17.174Z,5.78
2019-05-01T10:23:47.020Z,5.50
2019-05-01T10:26:18.997Z,5.72
2019-05-01T10:28:56.474Z,5.60
2019-05-01T10:31:30.070Z,5.40
2019-05-01T10:34:21.575Z,5.87
2019-05-01T10:36:54.477Z,5.28
2019-05-01T10:39:34.235Z,5.80
2019-05-01T10:42:00.155Z,5.85
2019-05-01T10:44:28.895Z,5.28
2019-05-01T10:47:02.349Z,5.58
2019-05-01T10:49:37.846Z,5.72
2019-05-01T10:52:14.266Z,5.60
2019-05-01T10:54:42.405Z,5.55
2019-05-01T10:57:12.972Z,5.42
2019-05-01T10:59:46.283Z,6.03
2019-05-01T11:02:18.318Z,6.28
2019-05-01T11:04:53.015Z,5.30
2019-05-01T11:07:22.825Z,5.00
2019-05-01T11:09:57.365Z,5.47
2019-05-01T11:12:28.715Z,5.15
2019-05-01T11:15:00.050Z,5.12
2019-05-01T11:17:34.477Z,5.70
2019-05-01T11:20:07.457Z,5.25
2019-05-01T11:22:45.055Z,5.37
2019-05-01T11:25:19.615Z,4.90
2019-05-01T11:27:54.415Z,5.10
2019-05-01T11:30:27.205Z,5.50
2019-05-01T11:33:06.116Z,5.15
2019-05-01T11:35:40.835Z,4.90
2019-05-01T11:38:24.995Z,4.97
2019-05-01T11:41:06.715Z,5.33
2019-05-01T11:43:45.806Z,5.37
2019-05-01T11:46:19.344Z,5.12
2019-05-01T11:49:00.516Z,4.72
2019-05-01T11:51:35.105Z,5.40
2019-05-01T11:54:06.265Z,5.03
2019-05-01T11:56:41.113Z,4.62
2019-05-01T11:59:15.685Z,5.17
2019-05-01T12:01:50.997Z,4.65
2019-05-01T12:04:39.041Z,4.97
2019-05-01T12:07:09.337Z,4.72
2019-05-01T12:09:42.698Z,4.80
2019-05-01T12:12:22.153Z,5.28
2019-05-01T12:14:54.939Z,5.03
2019-05-01T12:17:30.382Z,5.62
2019-05-01T12:20:13.296Z,4.80
2019-05-01T12:22:47.514Z,4.58
2019-05-01T12:25:18.624Z,4.75
2019-05-01T12:27:53.096Z,4.53
2019-05-01T12:30:44.715Z,4.78
2019-05-01T12:35:47.086Z,4.92
2019-05-01T12:38:18.065Z,5.22
2019-05-01T12:40:52.034Z,5.08
2019-05-01T12:43:25.747Z,4.80
2019-05-01T12:46:01.541Z,4.50
2019-05-01T12:48:49.507Z,4.90
2019-05-01T12:51:23.856Z,4.50
2019-05-01T12:54:12.025Z,4.97
2019-05-01T12:56:43.145Z,4.80
2019-05-01T12:59:16.644Z,4.75
2019-05-01T13:01:49.725Z,4.65
2019-05-01T13:04:22.815Z,4.60
2019-05-01T13:06:58.618Z,5.20
2019-05-01T13:09:32.463Z,4.60
2019-05-01T13:12:05.465Z,4.58
2019-05-01T13:14:37.125Z,4.90
2019-05-01T13:19:59.995Z,4.45
2019-05-01T13:22:30.895Z,4.35
2019-05-01T13:25:03.346Z,4.22
2019-05-01T13:27:43.045Z,4.15
2019-05-01T13:30:39.284Z,4.28
2019-05-01T13:33:08.044Z,4.17
2019-05-01T13:35:36.876Z,4.65
2019-05-01T13:38:11.064Z,4.50
2019-05-01T13:40:48.561Z,3.92
2019-05-01T13:43:23.795Z,4.40
2019-05-01T13:45:59.613Z,4.17
2019-05-01T13:48:39.406Z,4.33
2019-05-01T13:51:17.826Z,4.03
2019-05-01T13:53:48.673Z,4.50
2019-05-01T13:56:23.854Z,3.75
2019-05-01T13:58:59.546Z,4.08
2019-05-01T14:01:33.848Z,4.25
2019-05-01T14:04:07.145Z,4.03
2019-05-01T14:06:38.287Z,4.28
2019-05-01T14:09:11.305Z,4.33
2019-05-01T14:11:42.326Z,4.40
2019-05-01T14:14:16.345Z,4.08
2019-05-01T14:16:47.955Z,4.42
2019-05-01T14:19:17.905Z,3.90
2019-05-01T14:21:48.535Z,3.63
2019-05-01T14:24:22.654Z,4.25
2019-05-01T14:26:59.533Z,4.53
2019-05-01T14:29:29.855Z,4.65
2019-05-01T14:32:04.066Z,4.65
2019-05-01T14:37:29.749Z,4.20
2019-05-01T14:39:58.194Z,4.53
2019-05-01T14:42:46.934Z,4.85
2019-05-01T14:45:17.165Z,5.42
2019-05-01T14:47:50.285Z,4.42
2019-05-01T14:50:24.685Z,4.40
2019-05-01T14:52:57.145Z,4.20
2019-05-01T14:55:28.115Z,5.03
2019-05-01T14:57:57.203Z,4.40
2019-05-01T15:00:28.733Z,4.47
2019-05-01T15:02:57.725Z,4.20
2019-05-01T15:05:28.266Z,4.58
2019-05-01T15:07:57.144Z,4.40
2019-05-01T15:10:26.135Z,4.30
2019-05-01T15:12:56.575Z,4.20
2019-05-01T15:15:35.898Z,4.00
2019-05-01T15:18:31.805Z,4.42
2019-05-01T15:21:03.886Z,4.83
2019-05-01T15:23:32.792Z,4.03
2019-05-01T15:26:03.525Z,4.10
2019-05-01T15:28:36.756Z,4.47
2019-05-01T15:31:07.635Z,4.12
2019-05-01T15:33:40.845Z,4.37
2019-05-01T15:36:14.565Z,4.67
2019-05-01T15:38:48.285Z,4.08
2019-05-01T15:41:26.134Z,3.87
2019-05-01T15:44:06.204Z,4.00
2019-05-01T15:46:38.625Z,4.08
2019-05-01T15:49:13.848Z,4.33
2019-05-01T15:51:44.845Z,3.95
2019-05-01T15:54:27.168Z,3.72
2019-05-01T15:56:55.985Z,3.92
2019-05-01T15:59:24.766Z,4.17
2019-05-01T16:01:56.505Z,3.70
2019-05-01T16:04:27.115Z,3.87
2019-05-01T16:06:57.645Z,3.95
2019-05-01T16:09:30.034Z,3.77
2019-05-01T16:12:23.284Z,3.65
2019-05-01T16:17:32.657Z,4.30
2019-05-01T16:20:01.633Z,3.65
2019-05-01T16:22:30.626Z,3.60
2019-05-01T16:24:59.515Z,3.72
2019-05-01T16:27:28.486Z,4.00
2019-05-01T16:30:08.685Z,3.83
2019-05-01T16:32:37.404Z,3.47
2019-05-01T16:35:07.875Z,3.60
2019-05-01T16:37:37.076Z,3.52
2019-05-01T16:40:28.485Z,3.98
2019-05-01T16:42:59.015Z,3.65
2019-05-01T16:45:30.625Z,3.98
2019-05-01T16:47:59.575Z,3.95
2019-05-01T16:50:31.545Z,4.03
2019-05-01T16:53:06.385Z,3.70
2019-05-01T16:55:35.355Z,3.75
2019-05-01T16:58:05.825Z,3.92
2019-05-01T17:00:57.795Z,4.00
2019-05-01T17:03:44.096Z,3.67
2019-05-01T17:06:24.994Z,4.03
2019-05-01T17:11:28.537Z,3.87
2019-05-01T17:13:57.575Z,3.87
2019-05-01T17:16:29.617Z,3.70
2019-05-01T17:19:12.165Z,3.98
2019-05-01T17:21:41.996Z,3.72
2019-05-01T17:24:12.635Z,4.28
2019-05-01T17:29:23.233Z,3.75
2019-05-01T17:31:52.085Z,4.03
2019-05-01T17:34:21.095Z,4.10
2019-05-01T17:36:50.116Z,3.80
2019-05-01T17:39:18.976Z,4.05
2019-05-01T17:41:47.975Z,3.98
2019-05-01T17:44:27.049Z,4.12
2019-05-01T17:46:57.134Z,4.30
2019-05-01T17:49:25.925Z,4.10
2019-05-01T17:51:54.886Z,4.05
2019-05-01T17:54:25.385Z,4.25
2019-05-01T17:56:55.945Z,4.50
2019-05-01T17:59:25.055Z,4.03
2019-05-01T18:01:58.265Z,4.42
2019-05-01T18:04:31.735Z,3.92
2019-05-01T18:07:01.178Z,4.28
2019-05-01T18:09:32.635Z,4.03
2019-05-01T18:12:03.205Z,4.25
2019-05-01T18:14:32.026Z,4.55
2019-05-01T18:17:15.535Z,4.60
2019-05-01T18:19:44.467Z,4.20
2019-05-01T18:22:17.554Z,4.15
2019-05-01T18:24:53.894Z,4.20
2019-05-01T18:27:28.851Z,4.83
2019-05-01T18:30:00.803Z,4.50
2019-05-01T18:32:41.346Z,4.37
2019-05-01T18:35:14.166Z,4.33
2019-05-01T18:37:47.105Z,4.70
2019-05-01T18:40:23.550Z,4.87
2019-05-01T18:42:54.025Z,4.30
2019-05-01T18:45:53.975Z,4.78
2019-05-01T18:48:23.224Z,4.35
2019-05-01T18:51:09.683Z,4.37
2019-05-01T18:53:39.145Z,5.22
2019-05-01T18:56:07.915Z,4.85
2019-05-01T18:58:38.047Z,4.55
2019-05-01T19:01:09.379Z,4.55
2019-05-01T19:03:42.463Z,4.92
2019-05-01T19:06:16.194Z,4.72
2019-05-01T19:08:49.575Z,5.15
2019-05-01T19:11:18.698Z,4.83
2019-05-01T19:13:50.435Z,4.80
2019-05-01T19:16:21.915Z,4.97
2019-05-01T19:18:51.385Z,4.60
2019-05-01T19:21:23.828Z,4.67
2019-05-01T19:23:53.125Z,4.95
2019-05-01T19:26:21.865Z,4.92
2019-05-01T19:28:50.704Z,4.90
2019-05-01T19:31:21.381Z,4.65
2019-05-01T19:33:50.015Z,5.20
2019-05-01T19:36:18.774Z,4.90
2019-05-01T19:38:47.615Z,5.30
2019-05-01T19:41:16.399Z,4.65
2019-05-01T19:43:45.207Z,4.60
2019-05-01T19:46:15.685Z,5.08
2019-05-01T19:48:50.696Z,4.65
2019-05-01T19:51:19.128Z,4.40
2019-05-01T19:53:51.522Z,5.00
2019-05-01T19:56:21.550Z,4.62
2019-05-01T19:58:47.638Z,4.50
2019-05-01T20:01:16.459Z,4.50
2019-05-01T20:03:45.260Z,4.55
2019-05-01T20:06:17.177Z,4.62
2019-05-01T20:08:48.887Z,4.50
2019-05-01T20:11:17.647Z,4.50
2019-05-01T20:13:47.065Z,4.25
2019-05-01T20:16:18.466Z,4.45
2019-05-01T20:18:48.355Z,4.58
2019-05-01T20:21:21.535Z,4.72
2019-05-01T20:23:55.824Z,4.75
2019-05-01T20:26:26.855Z,4.78
2019-05-01T20:29:00.409Z,4.37
2019-05-01T20:31:33.032Z,4.30
2019-05-01T20:34:05.226Z,4.40
2019-05-01T20:36:38.816Z,4.00
2019-05-01T20:39:09.665Z,4.47
2019-05-01T20:41:44.785Z,4.60
2019-05-01T20:44:23.342Z,4.90
2019-05-01T20:46:49.434Z,4.67
2019-05-01T20:49:25.385Z,4.40
2019-05-01T20:51:54.803Z,4.47
2019-05-01T20:54:29.805Z,4.40
2019-05-01T20:57:08.136Z,4.37
2019-05-01T20:59:39.152Z,4.22
2019-05-01T21:02:10.945Z,4.62
2019-05-01T21:04:49.135Z,4.15
2019-05-01T21:07:21.294Z,4.00
2019-05-01T21:09:57.721Z,4.17
2019-05-01T21:12:25.963Z,4.20
2019-05-01T21:14:58.472Z,4.10
2019-05-01T21:17:31.625Z,4.40
2019-05-01T21:20:00.496Z,5.53
2019-05-01T21:22:33.398Z,4.62
2019-05-01T21:25:05.245Z,4.80
2019-05-01T21:27:39.275Z,4.40
2019-05-01T21:30:10.725Z,4.40
2019-05-01T21:32:44.462Z,4.80
2019-05-01T21:35:15.245Z,4.30
2019-05-01T21:40:14.789Z,4.00
2019-05-01T21:42:47.393Z,4.40
2019-05-01T21:45:18.195Z,4.53
2019-05-01T21:47:49.035Z,4.40
2019-05-01T21:50:33.581Z,4.85
2019-05-01T21:53:06.695Z,4.78
2019-05-01T21:55:39.802Z,3.90
2019-05-01T21:58:12.335Z,4.25
2019-05-01T22:00:44.486Z,4.37
2019-05-01T22:03:16.710Z,4.42
2019-05-01T22:05:49.175Z,4.53
2019-05-01T22:08:23.354Z,4.00
2019-05-01T22:10:57.718Z,3.98
2019-05-01T22:13:27.085Z,3.95
2019-05-01T22:16:23.683Z,3.70
2019-05-01T22:19:12.175Z,4.12
2019-05-01T22:21:48.317Z,4.10
2019-05-01T22:24:21.987Z,4.12
2019-05-01T22:27:04.044Z,4.20
2019-05-01T22:29:47.993Z,4.30
2019-05-01T22:32:19.125Z,3.90
2019-05-01T22:34:54.084Z,4.25
2019-05-01T22:37:25.725Z,4.20
2019-05-01T22:39:58.185Z,4.15
2019-05-01T22:42:29.435Z,4.12
2019-05-01T22:45:03.856Z,3.75
2019-05-01T22:47:36.835Z,4.10
2019-05-01T22:50:11.925Z,4.08
2019-05-01T22:52:45.865Z,3.75
2019-05-01T22:55:25.135Z,4.25
2019-05-01T22:57:49.515Z,4.00
2019-05-01T23:00:24.866Z,3.87
2019-05-01T23:03:00.110Z,4.05
2019-05-01T23:05:31.005Z,3.65
2019-05-01T23:08:00.116Z,3.83
2019-05-01T23:10:29.435Z,4.22
2019-05-01T23:13:00.047Z,4.03
2019-05-01T23:15:33.755Z,3.75
2019-05-01T23:18:04.085Z,3.92
2019-05-01T23:20:34.658Z,4.10
2019-05-01T23:23:05.865Z,3.95
2019-05-01T23:25:36.579Z,4.05
2019-05-01T23:28:07.014Z,4.30
2019-05-01T23:30:37.354Z,4.10
2019-05-01T23:33:06.165Z,4.30
2019-05-01T23:35:36.557Z,4.10
2019-05-01T23:38:07.194Z,4.10
2019-05-01T23:40:46.157Z,4.12
2019-05-01T23:43:13.764Z,4.17
2019-05-01T23:45:42.525Z,4.30
2019-05-01T23:48:14.220Z,4.33
2019-05-01T23:50:43.224Z,3.87
2019-05-01T23:53:13.931Z,4.12
2019-05-01T23:55:43.044Z,4.35
2019-05-01T23:58:11.938Z,4.45
